createdAt,value
2019-05-06T00:00:26.180Z,4.08
2019-05-06T00:02:56.284Z,4.92
2019-05-06T00:05:25.666Z,4.65
2019-05-06T00:07:54.972Z,4.30
2019-05-06T00:10:29.586Z,4.83
2019-05-06T00:12:58.715Z,4.90
2019-05-06T00:15:27.937Z,5.00
2019-05-06T00:17:58.139Z,5.47
2019-05-06T00:20:27.429Z,4.60
2019-05-06T00:23:04.106Z,5.05
2019-05-06T00:25:44.178Z,5.20
2019-05-06T00:28:39.926Z,4.90
2019-05-06T00:31:15.142Z,6.17
2019-05-06T00:33:44.292Z,6.15
2019-05-06T00:36:14.171Z,5.47
2019-05-06T00:38:44.968Z,5.92
2019-05-06T00:41:19.371Z,5.70
2019-05-06T00:43:48.415Z,5.72
2019-05-06T00:46:17.298Z,6.33
2019-05-06T00:48:46.334Z,6.08
2019-05-06T00:51:15.358Z,5.72
2019-05-06T00:53:48.495Z,5.47
2019-05-06T00:56:17.515Z,6.08
2019-05-06T00:58:46.547Z,4.92
2019-05-06T01:01:25.967Z,6.00
2019-05-06T01:03:46.499Z,6.28
2019-05-06T01:06:16.515Z,6.42
2019-05-06T01:08:45.544Z,5.72
2019-05-06T01:11:14.554Z,6.42
2019-05-06T01:13:49.583Z,6.78
2019-05-06T01:16:20.080Z,6.67
2019-05-06T01:18:49.036Z,6.00
2019-05-06T01:21:18.054Z,6.03
2019-05-06T01:23:47.680Z,5.95
2019-05-06T01:26:17.683Z,5.30
2019-05-06T01:28:46.743Z,6.03
2019-05-06T01:31:15.888Z,7.00
2019-05-06T01:33:45.352Z,6.08
2019-05-06T01:36:14.511Z,7.35
2019-05-06T01:38:53.535Z,7.22
2019-05-06T01:41:47.484Z,6.65
2019-05-06T01:44:16.539Z,13.70
2019-05-06T01:46:45.575Z,5.85
2019-05-06T01:49:14.617Z,7.08
2019-05-06T01:51:46.699Z,7.00
2019-05-06T01:54:15.742Z,7.92
2019-05-06T01:56:44.755Z,7.00
2019-05-06T01:59:14.223Z,7.70
2019-05-06T02:01:57.385Z,9.10
2019-05-06T02:04:15.110Z,7.45
2019-05-06T02:06:44.175Z,7.37
2019-05-06T02:09:17.495Z,7.85
2019-05-06T02:11:48.082Z,7.50
2019-05-06T02:14:18.235Z,8.35
2019-05-06T02:16:49.378Z,7.58
2019-05-06T02:19:18.394Z,8.30
2019-05-06T02:21:58.848Z,8.20
2019-05-06T02:24:33.845Z,8.25
2019-05-06T02:27:04.514Z,8.88
2019-05-06T02:29:36.366Z,8.55
2019-05-06T02:32:26.209Z,7.65
2019-05-06T02:35:14.981Z,8.68
2019-05-06T02:37:46.412Z,9.35
2019-05-06T02:40:24.765Z,9.88
2019-05-06T02:42:54.907Z,8.85
2019-05-06T02:45:25.355Z,10.50
2019-05-06T02:48:15.119Z,8.98
2019-05-06T02:51:03.911Z,8.55
2019-05-06T02:53:33.613Z,8.00
2019-05-06T02:56:03.993Z,8.63
2019-05-06T02:58:33.404Z,8.73
2019-05-06T03:01:03.508Z,10.43
2019-05-06T03:03:33.726Z,9.45
2019-05-06T03:06:03.968Z,9.10
2019-05-06T03:08:33.371Z,8.80
2019-05-06T03:11:03.970Z,9.50
2019-05-06T03:13:34.361Z,9.15
2019-05-06T03:16:05.840Z,9.15
2019-05-06T03:18:35.107Z,9.30
2019-05-06T03:21:24.689Z,8.73
2019-05-06T03:23:59.842Z,9.33
2019-05-06T03:26:28.864Z,10.23
2019-05-06T03:28:58.938Z,10.60
2019-05-06T03:31:28.772Z,9.85
2019-05-06T03:34:22.240Z,9.98
2019-05-06T03:36:34.651Z,9.80
2019-05-06T03:39:02.855Z,10.00
2019-05-06T03:41:33.614Z,9.63
2019-05-06T03:44:03.253Z,9.80
2019-05-06T03:46:54.008Z,9.10
2019-05-06T03:49:24.111Z,10.28
2019-05-06T03:51:56.157Z,11.30
2019-05-06T03:54:24.196Z,10.60
2019-05-06T03:56:56.372Z,10.58
2019-05-06T03:59:27.208Z,10.63
2019-05-06T04:01:56.217Z,11.20
2019-05-06T04:04:26.142Z,10.68
2019-05-06T04:06:56.255Z,11.93
2019-05-06T04:09:25.275Z,10.80
2019-05-06T04:11:56.116Z,12.23
2019-05-06T04:14:26.272Z,9.90
2019-05-06T04:17:20.059Z,10.60
2019-05-06T04:19:53.617Z,11.18
2019-05-06T04:22:35.348Z,11.78
2019-05-06T04:25:23.304Z,12.10
2019-05-06T04:27:56.154Z,12.05
2019-05-06T04:30:25.611Z,11.00
2019-05-06T04:32:56.387Z,13.03
2019-05-06T04:35:25.914Z,11.48
2019-05-06T04:37:55.923Z,11.35
2019-05-06T04:40:25.006Z,11.90
2019-05-06T04:42:55.059Z,12.30
2019-05-06T04:45:24.623Z,15.60
2019-05-06T04:47:54.217Z,11.43
2019-05-06T04:50:24.126Z,11.70
2019-05-06T04:53:04.659Z,11.60
2019-05-06T04:55:34.755Z,12.00
2019-05-06T04:58:04.883Z,11.48
2019-05-06T05:00:35.669Z,11.85
2019-05-06T05:03:05.285Z,11.68
2019-05-06T05:05:34.595Z,11.60
2019-05-06T05:08:03.930Z,12.18
2019-05-06T05:10:43.197Z,12.07
2019-05-06T05:13:23.185Z,11.03
2019-05-06T05:16:12.815Z,11.45
2019-05-06T05:18:45.722Z,12.15
2019-05-06T05:21:15.279Z,12.73
2019-05-06T05:23:44.614Z,11.45
2019-05-06T05:26:13.621Z,11.08
2019-05-06T05:28:43.050Z,13.60
2019-05-06T05:31:12.361Z,11.55
2019-05-06T05:33:42.320Z,13.10
2019-05-06T05:36:12.428Z,12.03
2019-05-06T05:38:42.936Z,11.22
2019-05-06T05:41:12.204Z,11.80
2019-05-06T05:43:52.873Z,12.55
2019-05-06T05:46:21.956Z,11.15
2019-05-06T05:49:09.540Z,11.10
2019-05-06T05:51:39.777Z,12.80
2019-05-06T05:54:09.908Z,10.72
2019-05-06T05:56:39.234Z,11.68
2019-05-06T05:59:08.302Z,11.93
2019-05-06T06:01:37.528Z,10.55
2019-05-06T06:04:06.580Z,11.25
2019-05-06T06:06:35.798Z,10.60
2019-05-06T06:09:05.734Z,10.72
2019-05-06T06:11:48.071Z,10.65
2019-05-06T06:14:56.201Z,9.50
2019-05-06T06:17:52.058Z,10.35
2019-05-06T06:20:38.582Z,10.80
2019-05-06T06:23:17.890Z,11.08
2019-05-06T06:25:48.035Z,10.23
2019-05-06T06:28:17.993Z,10.20
2019-05-06T06:30:59.542Z,9.40
2019-05-06T06:33:28.593Z,10.53
2019-05-06T06:36:19.785Z,10.25
2019-05-06T06:39:13.928Z,11.33
2019-05-06T06:41:42.982Z,11.25
2019-05-06T06:44:15.627Z,10.75
2019-05-06T06:46:45.660Z,11.90
2019-05-06T06:49:14.679Z,9.73
2019-05-06T06:51:44.742Z,11.00
2019-05-06T06:54:13.773Z,10.78
2019-05-06T06:57:07.887Z,10.28
2019-05-06T06:59:42.560Z,9.53
2019-05-06T07:02:32.769Z,10.15
2019-05-06T07:05:22.440Z,10.98
2019-05-06T07:07:47.132Z,11.05
2019-05-06T07:10:32.411Z,9.90
2019-05-06T07:13:02.863Z,10.98
2019-05-06T07:15:33.631Z,9.45
2019-05-06T07:18:04.100Z,11.15
2019-05-06T07:20:37.959Z,11.28
2019-05-06T07:23:25.262Z,10.75
2019-05-06T07:25:54.984Z,11.22
2019-05-06T07:28:24.581Z,11.03
2019-05-06T07:30:54.083Z,11.35
2019-05-06T07:33:23.205Z,11.03
2019-05-06T07:35:52.885Z,11.03
2019-05-06T07:38:23.019Z,10.50
2019-05-06T07:40:57.445Z,11.30
2019-05-06T07:43:44.340Z,10.70
2019-05-06T07:46:23.506Z,11.48
2019-05-06T07:48:51.888Z,10.93
2019-05-06T07:51:23.882Z,11.30
2019-05-06T07:53:52.622Z,12.00
2019-05-06T07:56:22.460Z,10.55
2019-05-06T07:58:53.583Z,11.55
2019-05-06T08:01:25.948Z,12.15
2019-05-06T08:03:53.408Z,10.20
2019-05-06T08:06:22.791Z,10.35
2019-05-06T08:08:53.834Z,9.53
2019-05-06T08:11:26.013Z,9.53
2019-05-06T08:13:53.615Z,11.78
2019-05-06T08:16:23.445Z,9.68
2019-05-06T08:18:53.261Z,10.40
2019-05-06T08:21:23.961Z,9.68
2019-05-06T08:23:52.998Z,10.35
2019-05-06T08:26:22.574Z,10.15
2019-05-06T08:28:52.632Z,9.20
2019-05-06T08:31:22.801Z,8.63
2019-05-06T08:33:52.413Z,9.40
2019-05-06T08:36:32.922Z,9.30
2019-05-06T08:39:02.862Z,8.23
2019-05-06T08:41:33.229Z,9.28
2019-05-06T08:44:02.811Z,8.60
2019-05-06T08:46:32.917Z,7.95
2019-05-06T08:49:03.072Z,8.78
2019-05-06T08:51:42.614Z,8.65
2019-05-06T08:54:28.014Z,8.68
2019-05-06T08:56:57.149Z,8.03
2019-05-06T08:59:26.133Z,9.30
2019-05-06T09:01:56.350Z,9.53
2019-05-06T09:04:25.329Z,8.50
2019-05-06T09:06:54.343Z,7.30
2019-05-06T09:09:23.346Z,9.10
2019-05-06T09:11:53.517Z,8.15
2019-05-06T09:14:23.651Z,7.65
2019-05-06T09:16:53.989Z,9.40
2019-05-06T09:19:23.533Z,7.80
2019-05-06T09:21:53.336Z,7.47
2019-05-06T09:24:23.191Z,8.25
2019-05-06T09:27:04.006Z,7.65
2019-05-06T09:29:42.984Z,9.03
2019-05-06T09:32:16.811Z,7.95
2019-05-06T09:34:52.432Z,7.03
2019-05-06T09:37:24.084Z,8.70
2019-05-06T09:39:53.411Z,7.00
2019-05-06T09:42:23.140Z,7.47
2019-05-06T09:44:54.011Z,8.43
2019-05-06T09:47:42.408Z,7.78
2019-05-06T09:50:14.336Z,6.67
2019-05-06T09:52:43.346Z,7.17
2019-05-06T09:55:22.602Z,7.58
2019-05-06T09:58:03.419Z,6.17
2019-05-06T10:00:34.562Z,7.47
2019-05-06T10:03:03.956Z,7.92
2019-05-06T10:05:32.986Z,8.35
2019-05-06T10:08:03.440Z,7.45
2019-05-06T10:10:32.888Z,8.53
2019-05-06T10:13:04.254Z,6.50
2019-05-06T10:15:33.570Z,6.47
2019-05-06T10:18:08.978Z,7.00
2019-05-06T10:20:39.637Z,6.50
2019-05-06T10:23:09.202Z,7.20
2019-05-06T10:25:38.671Z,6.75
2019-05-06T10:28:13.347Z,5.50
2019-05-06T10:30:43.394Z,6.30
2019-05-06T10:33:16.802Z,6.00
2019-05-06T10:35:45.833Z,6.90
2019-05-06T10:38:43.866Z,6.85
2019-05-06T10:41:18.150Z,6.45
2019-05-06T10:44:36.939Z,6.43
2019-05-06T10:47:05.894Z,6.65
2019-05-06T10:49:34.825Z,6.80
2019-05-06T10:52:13.181Z,7.03
2019-05-06T10:54:42.219Z,6.00
2019-05-06T10:57:33.594Z,6.70
2019-05-06T11:00:02.634Z,6.78
2019-05-06T11:03:02.842Z,6.15
2019-05-06T11:05:32.519Z,6.08
2019-05-06T11:08:02.348Z,6.05
2019-05-06T11:10:40.428Z,5.35
2019-05-06T11:13:03.446Z,5.40
2019-05-06T11:15:33.084Z,6.10
2019-05-06T11:18:04.728Z,5.83
2019-05-06T11:20:33.576Z,6.00
2019-05-06T11:23:02.811Z,6.20
2019-05-06T11:25:32.394Z,6.70
2019-05-06T11:28:02.981Z,5.53
2019-05-06T11:30:49.734Z,4.75
2019-05-06T11:33:52.570Z,4.43
2019-05-06T11:36:26.356Z,3.63
2019-05-06T11:38:56.473Z,4.33
2019-05-06T11:41:25.466Z,5.77
2019-05-06T11:43:54.454Z,5.27
2019-05-06T11:46:23.544Z,5.73
2019-05-06T11:48:52.597Z,5.73
2019-05-06T11:51:23.217Z,6.07
2019-05-06T11:53:54.067Z,4.90
2019-05-06T11:56:23.142Z,5.80
2019-05-06T11:58:53.993Z,6.93
2019-05-06T12:01:43.446Z,7.17
2019-05-06T12:04:13.859Z,8.60
2019-05-06T12:06:43.072Z,8.00
2019-05-06T12:09:16.553Z,8.20
2019-05-06T12:11:43.344Z,8.18
2019-05-06T12:14:12.582Z,8.28
2019-05-06T12:16:41.678Z,8.38
2019-05-06T12:19:12.882Z,8.93
2019-05-06T12:21:43.118Z,9.20
2019-05-06T12:24:12.362Z,8.85
2019-05-06T12:26:42.939Z,9.10
2019-05-06T12:29:12.676Z,8.15
2019-05-06T12:31:42.345Z,9.03
2019-05-06T12:34:14.527Z,8.75
2019-05-06T12:36:42.882Z,8.40
2019-05-06T12:39:27.732Z,8.53
2019-05-06T12:42:15.824Z,8.88
2019-05-06T12:45:10.159Z,9.20
2019-05-06T12:47:59.856Z,7.25
2019-05-06T12:50:28.834Z,7.53
2019-05-06T12:52:58.076Z,7.50
2019-05-06T12:55:27.204Z,7.80
2019-05-06T12:57:56.151Z,8.38
2019-05-06T13:00:27.439Z,7.13
2019-05-06T13:02:56.372Z,6.90
2019-05-06T13:05:25.469Z,7.97
2019-05-06T13:07:55.271Z,7.87
2019-05-06T13:10:24.290Z,7.60
2019-05-06T13:12:58.407Z,7.50
2019-05-06T13:15:27.451Z,6.40
2019-05-06T13:17:56.476Z,7.00
2019-05-06T13:20:25.487Z,6.73
2019-05-06T13:23:00.241Z,6.80
2019-05-06T13:25:32.610Z,6.43
2019-05-06T13:28:01.006Z,7.17
2019-05-06T13:30:32.633Z,7.37
2019-05-06T13:33:08.019Z,6.70
2019-05-06T13:35:37.118Z,8.03
2019-05-06T13:38:07.981Z,7.60
2019-05-06T13:40:51.286Z,7.43
2019-05-06T13:43:43.930Z,7.10
2019-05-06T13:46:19.747Z,6.60
2019-05-06T13:48:57.447Z,7.20
2019-05-06T13:51:32.198Z,7.20
2019-05-06T13:54:02.560Z,7.00
2019-05-06T13:56:33.249Z,6.83
2019-05-06T13:59:05.032Z,7.87
2019-05-06T14:01:45.672Z,7.10
2019-05-06T14:04:19.654Z,7.30
2019-05-06T14:06:49.040Z,7.10
2019-05-06T14:09:31.389Z,8.57
2019-05-06T14:11:49.920Z,6.87
2019-05-06T14:14:19.266Z,6.70
2019-05-06T14:16:49.120Z,6.80
2019-05-06T14:19:19.808Z,4.90
2019-05-06T14:21:49.043Z,6.33
2019-05-06T14:24:19.008Z,6.07
2019-05-06T14:26:57.460Z,5.80
2019-05-06T14:29:32.956Z,6.43
2019-05-06T14:32:02.638Z,6.47
2019-05-06T14:34:32.681Z,5.83
2019-05-06T14:37:09.303Z,5.13
2019-05-06T14:39:52.718Z,6.17
2019-05-06T14:42:12.841Z,5.87
2019-05-06T14:44:43.045Z,6.30
2019-05-06T14:47:23.417Z,6.47
2019-05-06T14:49:53.125Z,6.13
2019-05-06T14:52:23.450Z,6.00
2019-05-06T14:54:57.883Z,6.00
2019-05-06T14:57:27.046Z,6.57
2019-05-06T14:59:56.804Z,6.50
2019-05-06T15:02:27.671Z,6.85
2019-05-06T15:04:58.824Z,6.25
2019-05-06T15:07:29.153Z,7.17
2019-05-06T15:10:16.330Z,6.37
2019-05-06T15:12:29.480Z,7.12
2019-05-06T15:14:58.679Z,6.28
2019-05-06T15:17:27.706Z,6.67
2019-05-06T15:19:56.804Z,6.30
2019-05-06T15:22:26.777Z,6.35
2019-05-06T15:24:55.859Z,5.75
2019-05-06T15:27:25.047Z,5.77
2019-05-06T15:29:58.208Z,5.97
2019-05-06T15:32:32.111Z,6.62
2019-05-06T15:35:24.261Z,5.95
2019-05-06T15:37:57.440Z,5.55
2019-05-06T15:40:32.575Z,5.05
2019-05-06T15:42:58.707Z,5.90
2019-05-06T15:45:28.024Z,5.30
2019-05-06T15:47:57.814Z,5.37
2019-05-06T15:50:28.064Z,5.67
2019-05-06T15:52:58.287Z,5.77
2019-05-06T15:55:32.134Z,5.10
2019-05-06T15:58:03.472Z,5.55
2019-05-06T16:00:33.234Z,6.60
2019-05-06T16:03:02.593Z,6.70
2019-05-06T16:05:34.478Z,19.63
2019-05-06T16:08:04.868Z,12.30
2019-05-06T16:10:50.969Z,24.90
2019-05-06T16:13:06.085Z,6.20
2019-05-06T16:15:35.258Z,4.92
2019-05-06T16:18:04.888Z,4.87
2019-05-06T16:20:36.340Z,4.47
2019-05-06T16:23:17.485Z,4.70
2019-05-06T16:25:47.892Z,4.33
2019-05-06T16:28:18.515Z,4.75
2019-05-06T16:30:47.672Z,4.25
2019-05-06T16:33:22.061Z,5.12
2019-05-06T16:35:57.986Z,5.28
2019-05-06T16:38:27.211Z,4.20
2019-05-06T16:41:09.461Z,4.78
2019-05-06T16:44:07.388Z,5.37
2019-05-06T16:46:39.860Z,4.60
2019-05-06T16:49:10.219Z,5.10
2019-05-06T16:51:46.327Z,5.17
2019-05-06T16:54:16.587Z,4.60
2019-05-06T16:56:56.993Z,4.62
2019-05-06T16:59:27.450Z,5.15
2019-05-06T17:02:02.853Z,5.30
2019-05-06T17:04:38.668Z,4.33
2019-05-06T17:07:07.767Z,5.70
2019-05-06T17:09:38.915Z,4.78
2019-05-06T17:12:10.240Z,4.80
2019-05-06T17:14:39.584Z,4.67
2019-05-06T17:17:09.228Z,4.53
2019-05-06T17:19:42.059Z,4.60
2019-05-06T17:22:13.034Z,4.20
2019-05-06T17:24:43.582Z,4.37
2019-05-06T17:27:13.769Z,4.20
2019-05-06T17:30:07.754Z,4.40
2019-05-06T17:32:41.899Z,4.55
2019-05-06T17:35:12.815Z,4.28
2019-05-06T17:38:04.127Z,4.30
2019-05-06T17:40:34.334Z,4.35
2019-05-06T17:43:03.438Z,4.50
2019-05-06T17:45:59.310Z,4.53
2019-05-06T17:48:42.417Z,4.35
2019-05-06T17:51:27.563Z,4.80
2019-05-06T17:53:57.708Z,4.12
2019-05-06T17:56:27.858Z,4.80
2019-05-06T17:58:57.043Z,4.20
2019-05-06T18:01:36.870Z,4.45
2019-05-06T18:04:07.042Z,5.08
2019-05-06T18:06:36.157Z,4.33
2019-05-06T18:09:07.633Z,4.40
2019-05-06T18:11:36.591Z,4.37
2019-05-06T18:14:05.602Z,4.47
2019-05-06T18:16:36.702Z,4.80
2019-05-06T18:19:07.726Z,4.55
2019-05-06T18:21:36.772Z,4.35
2019-05-06T18:24:05.786Z,4.70
2019-05-06T18:26:34.827Z,5.00
2019-05-06T18:29:04.167Z,4.50
2019-05-06T18:31:35.794Z,4.45
2019-05-06T18:34:06.481Z,5.28
2019-05-06T18:36:35.626Z,4.72
2019-05-06T18:39:07.385Z,4.30
2019-05-06T18:41:37.565Z,4.55
2019-05-06T18:44:06.806Z,6.08
2019-05-06T18:46:36.062Z,5.03
2019-05-06T18:49:05.195Z,4.70
2019-05-06T18:51:34.746Z,5.45
2019-05-06T18:54:03.979Z,4.95
2019-05-06T18:56:42.782Z,5.05
2019-05-06T18:59:12.236Z,5.30
2019-05-06T19:01:43.307Z,4.67
2019-05-06T19:04:23.566Z,5.65
2019-05-06T19:07:08.763Z,5.20
2019-05-06T19:09:47.276Z,5.60
2019-05-06T19:12:28.611Z,5.95
2019-05-06T19:14:47.222Z,5.25
2019-05-06T19:17:16.508Z,4.60
2019-05-06T19:19:52.039Z,5.80
2019-05-06T19:22:22.927Z,5.75
2019-05-06T19:24:54.530Z,5.72
2019-05-06T19:27:24.995Z,4.80
2019-05-06T19:29:54.783Z,5.53
2019-05-06T19:32:23.978Z,5.50
2019-05-06T19:34:54.144Z,6.55
2019-05-06T19:37:24.943Z,5.97
2019-05-06T19:39:54.034Z,4.97
2019-05-06T19:42:23.214Z,6.42
2019-05-06T19:44:52.903Z,6.05
2019-05-06T19:47:22.871Z,6.00
2019-05-06T19:49:53.195Z,5.47
2019-05-06T19:52:25.122Z,5.80
2019-05-06T19:54:54.305Z,6.12
2019-05-06T19:57:25.827Z,6.15
2019-05-06T19:59:54.795Z,6.50
2019-05-06T20:02:25.870Z,5.90
2019-05-06T20:04:59.156Z,5.60
2019-05-06T20:07:37.008Z,5.58
2019-05-06T20:10:32.703Z,6.33
2019-05-06T20:13:05.316Z,6.40
2019-05-06T20:15:42.644Z,5.80
2019-05-06T20:18:11.731Z,5.50
2019-05-06T20:20:42.356Z,6.85
2019-05-06T20:23:12.583Z,5.30
2019-05-06T20:25:42.581Z,6.08
2019-05-06T20:28:14.605Z,6.08
2019-05-06T20:30:44.898Z,6.87
2019-05-06T20:33:15.171Z,6.85
2019-05-06T20:35:44.472Z,6.17
2019-05-06T20:38:14.001Z,6.55
2019-05-06T20:40:43.378Z,6.35
2019-05-06T20:43:19.626Z,5.70
2019-05-06T20:45:43.419Z,6.65
2019-05-06T20:48:13.051Z,7.10
2019-05-06T20:50:43.238Z,7.00
2019-05-06T20:53:13.425Z,6.78
2019-05-06T20:55:43.313Z,6.80
2019-05-06T20:58:12.681Z,7.60
2019-05-06T21:00:42.948Z,6.47
2019-05-06T21:03:12.461Z,6.67
2019-05-06T21:05:43.763Z,8.05
2019-05-06T21:08:13.864Z,7.90
2019-05-06T21:10:43.303Z,6.75
2019-05-06T21:13:22.002Z,6.05
2019-05-06T21:15:45.111Z,7.30
2019-05-06T21:18:14.202Z,7.03
2019-05-06T21:20:43.680Z,6.90
2019-05-06T21:23:13.791Z,7.20
2019-05-06T21:25:43.276Z,7.20
2019-05-06T21:28:12.355Z,7.55
2019-05-06T21:30:42.899Z,7.12
2019-05-06T21:33:12.522Z,8.08
2019-05-06T21:35:42.687Z,8.73
2019-05-06T21:38:12.288Z,8.05
2019-05-06T21:40:43.328Z,7.42
2019-05-06T21:43:13.770Z,7.67
2019-05-06T21:45:43.790Z,7.58
2019-05-06T21:48:13.639Z,7.50
2019-05-06T21:50:42.895Z,9.00
2019-05-06T21:53:14.765Z,8.60
2019-05-06T21:55:44.995Z,7.47
2019-05-06T21:58:14.424Z,7.65
2019-05-06T22:00:55.015Z,7.10
2019-05-06T22:03:24.042Z,6.92
2019-05-06T22:05:54.629Z,6.58
2019-05-06T22:08:24.815Z,7.50
2019-05-06T22:10:53.958Z,6.53
2019-05-06T22:13:24.982Z,6.37
2019-05-06T22:15:54.035Z,6.87
2019-05-06T22:18:23.064Z,7.00
2019-05-06T22:21:10.812Z,8.80
2019-05-06T22:24:12.138Z,7.60
2019-05-06T22:26:43.066Z,7.20
2019-05-06T22:29:14.134Z,7.00
2019-05-06T22:31:43.133Z,6.80
2019-05-06T22:34:13.417Z,7.25
2019-05-06T22:36:43.631Z,7.08
2019-05-06T22:39:12.651Z,7.17
2019-05-06T22:41:43.914Z,8.05
2019-05-06T22:44:14.239Z,6.92
2019-05-06T22:46:43.230Z,7.92
2019-05-06T22:49:13.331Z,6.50
2019-05-06T22:51:44.530Z,8.40
2019-05-06T22:54:13.647Z,6.92
2019-05-06T22:56:42.638Z,6.50
2019-05-06T22:59:13.666Z,7.35
2019-05-06T23:01:54.618Z,6.67
2019-05-06T23:04:26.536Z,7.05
2019-05-06T23:06:55.594Z,6.60
2019-05-06T23:09:24.897Z,7.28
2019-05-06T23:11:54.113Z,8.15
2019-05-06T23:14:31.295Z,8.18
2019-05-06T23:16:53.922Z,7.42
2019-05-06T23:19:24.422Z,8.43
2019-05-06T23:21:53.710Z,7.80
2019-05-06T23:24:23.744Z,7.92
2019-05-06T23:26:54.770Z,8.10
2019-05-06T23:29:24.460Z,7.47
2019-05-06T23:31:53.483Z,8.30
2019-05-06T23:34:23.102Z,8.65
2019-05-06T23:37:25.811Z,8.28
2019-05-06T23:40:42.860Z,8.40
2019-05-06T23:43:47.075Z,8.48
2019-05-06T23:46:52.746Z,9.40
2019-05-06T23:49:57.614Z,10.95
2019-05-06T23:53:03.197Z,8.68
2019-05-06T23:56:08.860Z,7.78
2019-05-06T23:58:37.889Z,8.15
